Time;durP1;ratioP1;P1;durP2;ratioP2;P2;SDS_P1;SDS_P2;PMS_P1;PMS_P2;Temp;Humidity;BMP_temperature;BMP_pressure;BME280_temperature;BME280_humidity;BME280_pressure;Samples;Min_cycle;Max_cycle;Signal;HPM_P1;HPM_P2
2023/03/03 00:01:17;;;;;;;52.78;12.55;;;3.10;99.90;;;;;;5088399;28;20167;-76
2023/03/03 00:03:43;;;;;;;51.08;12.75;;;3.10;99.90;;;;;;5104706;28;20096;-76
2023/03/03 00:06:12;;;;;;;50.22;12.50;;;3.00;99.90;;;;;;5087941;28;20047;-76
2023/03/03 00:08:38;;;;;;;22.15;11.45;;;3.00;99.90;;;;;;5105330;28;20384;-76
2023/03/03 00:11:06;;;;;;;71.85;12.82;;;3.00;99.90;;;;;;5104385;28;20039;-77
2023/03/03 00:13:38;;;;;;;32.17;10.80;;;3.00;99.90;;;;;;5090654;28;20043;-78
2023/03/03 00:16:14;;;;;;;37.05;10.68;;;2.90;99.90;;;;;;5108361;28;20040;-79
2023/03/03 00:18:43;;;;;;;33.65;12.05;;;2.90;99.90;;;;;;5108909;28;20157;-76
2023/03/03 00:21:28;;;;;;;33.03;10.77;;;3.10;99.90;;;;;;5091387;28;20130;-77
2023/03/03 00:24:14;;;;;;;17.63;10.00;;;2.80;99.90;;;;;;5105425;28;20044;-77
2023/03/03 00:26:44;;;;;;;25.02;10.75;;;2.80;99.90;;;;;;5106106;28;20233;-77
2023/03/03 00:29:39;;;;;;;32.03;10.55;;;2.80;99.90;;;;;;5087474;28;20478;-77
2023/03/03 00:32:11;;;;;;;21.60;10.80;;;2.80;99.90;;;;;;5102217;28;20055;-77
2023/03/03 00:34:37;;;;;;;51.13;12.38;;;2.70;99.90;;;;;;5089135;28;20127;-77
2023/03/03 00:37:14;;;;;;;39.17;10.27;;;2.70;99.90;;;;;;5103244;28;20119;-77
2023/03/03 00:39:40;;;;;;;44.05;10.02;;;3.40;99.90;;;;;;5088765;28;20070;-76
2023/03/03 00:42:13;;;;;;;22.30;9.82;;;2.60;99.90;;;;;;5104159;28;20497;-76
2023/03/03 00:44:43;;;;;;;30.35;9.77;;;2.50;99.90;;;;;;5105109;28;20221;-76
2023/03/03 00:47:27;;;;;;;45.88;9.90;;;2.40;99.90;;;;;;5105444;28;20050;-77
2023/03/03 00:50:05;;;;;;;47.35;9.27;;;2.40;99.90;;;;;;5103272;28;20402;-76
2023/03/03 00:52:35;;;;;;;29.83;9.13;;;3.40;99.90;;;;;;5105488;28;20490;-76
2023/03/03 00:55:01;;;;;;;28.42;7.60;;;2.30;99.90;;;;;;5104249;28;20043;-76
2023/03/03 00:57:27;;;;;;;38.38;8.73;;;2.20;99.90;;;;;;5054426;28;20079;-76
2023/03/03 00:59:53;;;;;;;90.20;10.25;;;2.20;99.90;;;;;;5105890;28;20079;-77
2023/03/03 01:02:18;;;;;;;43.88;8.73;;;2.20;99.90;;;;;;5070014;28;20479;-76
2023/03/03 01:04:49;;;;;;;57.72;8.75;;;2.10;99.90;;;;;;5088677;28;20046;-76
2023/03/03 01:07:15;;;;;;;43.90;8.63;;;2.00;99.90;;;;;;5103536;28;20055;-76
2023/03/03 01:09:40;;;;;;;82.68;10.18;;;1.90;99.90;;;;;;5071167;28;20460;-76
2023/03/03 01:12:06;;;;;;;131.05;11.85;;;1.80;99.90;;;;;;5086971;28;20112;-76
2023/03/03 01:14:32;;;;;;;46.85;8.88;;;1.70;99.90;;;;;;5087899;28;20040;-77
2023/03/03 01:16:58;;;;;;;55.53;8.20;;;1.60;99.90;;;;;;5105368;28;20044;-76
2023/03/03 01:19:24;;;;;;;115.30;9.70;;;1.50;99.90;;;;;;5088458;28;20541;-77
2023/03/03 01:21:50;;;;;;;76.55;8.15;;;1.40;99.90;;;;;;5109648;28;20044;-77
2023/03/03 01:24:16;;;;;;;74.13;8.90;;;1.40;99.90;;;;;;5106757;28;20044;-77
2023/03/03 01:26:42;;;;;;;55.65;7.20;;;1.30;99.90;;;;;;5108503;28;20054;-77
2023/03/03 01:29:08;;;;;;;21.20;6.30;;;1.30;99.90;;;;;;5107102;28;20047;-77
2023/03/03 01:31:33;;;;;;;14.23;5.57;;;1.30;99.90;;;;;;5091165;28;20055;-77
2023/03/03 01:33:59;;;;;;;67.07;6.90;;;1.20;99.90;;;;;;5091355;28;20087;-77
2023/03/03 01:36:27;;;;;;;74.32;6.80;;;1.10;99.90;;;;;;5090094;28;20042;-77
2023/03/03 01:38:53;;;;;;;81.13;7.38;;;1.10;99.90;;;;;;5109407;28;20096;-77
2023/03/03 01:41:18;;;;;;;11.10;5.30;;;1.00;99.90;;;;;;5106744;28;20043;-77
2023/03/03 01:43:49;;;;;;;41.83;6.68;;;1.00;99.90;;;;;;5075055;28;20094;-77
2023/03/03 01:46:23;;;;;;;54.97;6.40;;;0.90;99.90;;;;;;5107271;28;20118;-77
2023/03/03 01:48:55;;;;;;;65.40;6.85;;;2.10;99.90;;;;;;5107272;28;20108;-77
2023/03/03 01:51:29;;;;;;;93.85;8.18;;;0.90;99.90;;;;;;5091257;28;20401;-77
2023/03/03 01:53:59;;;;;;;19.80;5.20;;;0.80;99.90;;;;;;5107898;28;20066;-77
2023/03/03 01:56:26;;;;;;;23.35;6.15;;;0.80;99.90;;;;;;5108583;28;20046;-77
2023/03/03 01:58:59;;;;;;;63.00;6.35;;;0.70;99.90;;;;;;5106597;28;20051;-77
2023/03/03 02:01:31;;;;;;;49.72;7.38;;;0.70;99.90;;;;;;5107838;28;20988;-77
2023/03/03 02:03:57;;;;;;;22.65;5.78;;;0.60;99.90;;;;;;5090932;28;20567;-77
2023/03/03 02:06:36;;;;;;;26.30;6.15;;;0.60;99.90;;;;;;5089989;28;20126;-77
2023/03/03 02:09:27;;;;;;;42.75;6.22;;;0.60;99.90;;;;;;5108614;28;20052;-77
2023/03/03 02:11:58;;;;;;;12.18;5.70;;;0.50;99.90;;;;;;5112839;27;20421;-78
2023/03/03 02:14:24;;;;;;;27.95;6.32;;;0.50;99.90;;;;;;5090578;28;20044;-77
2023/03/03 02:16:51;;;;;;;22.50;6.32;;;0.50;99.90;;;;;;5107778;28;20048;-76
2023/03/03 02:19:32;;;;;;;13.38;6.90;;;0.40;99.90;;;;;;5089530;28;20393;-76
2023/03/03 02:22:01;;;;;;;17.95;6.32;;;0.40;99.90;;;;;;5107910;28;20052;-76
2023/03/03 02:24:32;;;;;;;21.80;6.88;;;0.40;99.90;;;;;;5106036;28;20486;-76
2023/03/03 02:26:58;;;;;;;13.88;6.82;;;0.30;99.90;;;;;;5090281;28;20062;-76
2023/03/03 02:29:24;;;;;;;21.15;7.15;;;0.30;99.90;;;;;;5090119;28;20043;-77
2023/03/03 02:31:49;;;;;;;31.88;7.20;;;0.30;99.90;;;;;;5105920;28;20039;-77
2023/03/03 02:34:16;;;;;;;9.07;6.32;;;0.60;99.90;;;;;;5107616;28;20070;-77
2023/03/03 02:36:42;;;;;;;10.75;6.90;;;0.20;99.90;;;;;;5105343;28;20126;-78
2023/03/03 02:39:21;;;;;;;9.45;6.53;;;0.10;99.90;;;;;;5107901;28;20123;-77
2023/03/03 02:42:12;;;;;;;10.68;7.20;;;0.10;99.90;;;;;;5088798;28;20040;-77
2023/03/03 02:44:38;;;;;;;11.52;7.28;;;0.10;99.90;;;;;;5106071;28;20040;-78
2023/03/03 02:47:04;;;;;;;10.27;6.53;;;0.00;99.90;;;;;;5107246;28;20123;-77
2023/03/03 02:49:32;;;;;;;11.43;7.32;;;0.00;99.90;;;;;;5104822;28;20043;-78
2023/03/03 02:51:58;;;;;;;10.35;6.28;;;0.10;99.90;;;;;;5110544;27;20048;-78
2023/03/03 02:54:26;;;;;;;11.18;7.32;;;0.00;99.90;;;;;;5075234;27;20449;-77
2023/03/03 02:56:52;;;;;;;9.95;6.55;;;1.20;99.90;;;;;;5060477;27;20065;-76
2023/03/03 02:59:18;;;;;;;11.95;7.00;;;1.20;99.90;;;;;;5092396;27;20096;-77
2023/03/03 03:01:45;;;;;;;11.07;6.57;;;-0.10;99.90;;;;;;5127968;27;20438;-76
2023/03/03 03:04:14;;;;;;;9.75;6.32;;;-0.10;99.90;;;;;;5128865;27;20092;-76
2023/03/03 03:06:40;;;;;;;10.95;6.95;;;-0.10;99.90;;;;;;5091186;27;20074;-77
2023/03/03 03:09:07;;;;;;;10.52;6.10;;;-0.10;99.90;;;;;;5076329;27;20050;-76
2023/03/03 03:11:34;;;;;;;9.90;6.43;;;-0.10;99.90;;;;;;5108471;27;20043;-76
2023/03/03 03:14:01;;;;;;;9.68;6.60;;;-0.20;99.90;;;;;;5128117;27;20096;-77
2023/03/03 03:16:27;;;;;;;9.63;6.20;;;-0.10;99.90;;;;;;5127871;27;20079;-77
2023/03/03 03:18:53;;;;;;;9.48;6.28;;;-0.10;99.90;;;;;;5108798;27;20039;-76
2023/03/03 03:21:19;;;;;;;10.95;6.05;;;-0.10;99.90;;;;;;5109823;27;20138;-77
2023/03/03 03:23:45;;;;;;;12.88;5.35;;;-0.10;99.90;;;;;;5108309;27;20131;-77
2023/03/03 03:26:12;;;;;;;9.25;6.50;;;-0.10;99.90;;;;;;5110126;27;20204;-77
2023/03/03 03:28:37;;;;;;;10.02;6.03;;;-0.10;99.90;;;;;;5108013;27;20053;-78
2023/03/03 03:31:04;;;;;;;9.27;6.00;;;-0.10;99.90;;;;;;5128422;27;20039;-77
2023/03/03 03:33:30;;;;;;;10.25;6.07;;;-0.10;99.90;;;;;;5127212;27;20058;-78
2023/03/03 03:35:57;;;;;;;8.85;5.85;;;-0.10;99.90;;;;;;5127104;27;20039;-78
2023/03/03 03:38:24;;;;;;;9.10;5.68;;;-0.10;99.90;;;;;;5109780;27;20502;-77
2023/03/03 03:40:50;;;;;;;13.48;6.45;;;-0.10;99.90;;;;;;5126317;27;20051;-78
2023/03/03 03:43:16;;;;;;;8.65;5.80;;;-0.10;99.90;;;;;;5130952;27;20043;-77
2023/03/03 03:45:42;;;;;;;12.85;5.70;;;-0.10;99.90;;;;;;5110666;27;20405;-77
2023/03/03 03:48:08;;;;;;;8.93;5.07;;;0.80;99.90;;;;;;5131716;27;20043;-77
2023/03/03 03:50:34;;;;;;;8.45;5.55;;;-0.10;99.90;;;;;;5110942;27;20070;-78
2023/03/03 03:53:00;;;;;;;8.85;5.18;;;-0.10;99.90;;;;;;5092888;27;20096;-77
2023/03/03 03:55:26;;;;;;;9.75;5.65;;;-0.10;99.90;;;;;;5110143;27;20514;-78
2023/03/03 03:57:55;;;;;;;11.93;5.60;;;-0.10;99.90;;;;;;5126710;27;20039;-77
2023/03/03 04:00:21;;;;;;;13.38;6.18;;;-0.10;99.90;;;;;;5076225;27;20039;-78
2023/03/03 04:02:46;;;;;;;10.98;5.70;;;-0.10;99.90;;;;;;5108057;27;20042;-78
2023/03/03 04:05:12;;;;;;;11.25;5.82;;;-0.10;99.90;;;;;;5092394;27;20541;-77
2023/03/03 04:07:38;;;;;;;10.63;5.57;;;-0.10;99.90;;;;;;5090962;27;20041;-77
2023/03/03 04:10:05;;;;;;;11.07;6.13;;;-0.10;99.90;;;;;;5108732;27;20084;-78
2023/03/03 04:12:37;;;;;;;12.73;6.00;;;-0.10;99.90;;;;;;5127791;27;20039;-77
2023/03/03 04:15:11;;;;;;;9.25;6.15;;;-0.10;99.90;;;;;;5090232;27;20490;-78
2023/03/03 04:17:37;;;;;;;12.35;5.28;;;-0.10;99.90;;;;;;5109801;28;20050;-77
2023/03/03 04:20:04;;;;;;;9.45;5.13;;;-0.20;99.90;;;;;;5073848;28;20405;-78
2023/03/03 04:22:34;;;;;;;8.60;5.70;;;-0.20;99.90;;;;;;5108692;28;20043;-78
2023/03/03 04:25:03;;;;;;;9.43;5.80;;;-0.20;99.90;;;;;;5127129;28;20054;-78
2023/03/03 04:27:33;;;;;;;9.27;5.13;;;-0.20;99.90;;;;;;5090950;28;20505;-78
2023/03/03 04:30:00;;;;;;;11.20;5.85;;;-0.30;99.90;;;;;;5092719;28;20398;-78
2023/03/03 04:32:26;;;;;;;9.68;5.57;;;0.60;99.90;;;;;;5089870;28;20043;-78
2023/03/03 04:34:53;;;;;;;10.07;5.03;;;-0.30;99.90;;;;;;5127629;28;20047;-78
2023/03/03 04:37:19;;;;;;;11.10;5.90;;;0.00;99.90;;;;;;5090281;28;20079;-78
2023/03/03 04:39:44;;;;;;;8.50;5.85;;;0.60;99.90;;;;;;5108512;28;20114;-78
2023/03/03 04:42:10;;;;;;;8.40;5.28;;;-0.40;99.90;;;;;;5091100;28;20155;-77
2023/03/03 04:44:36;;;;;;;9.05;5.60;;;-0.40;99.90;;;;;;5090614;28;20492;-78
2023/03/03 04:47:02;;;;;;;8.00;5.47;;;-0.40;99.90;;;;;;5091968;28;20092;-78
2023/03/03 04:49:28;;;;;;;10.32;5.28;;;-0.40;99.90;;;;;;5106376;28;20051;-78
2023/03/03 04:51:53;;;;;;;8.07;5.40;;;-0.40;99.90;;;;;;5091825;28;20050;-77
2023/03/03 04:54:19;;;;;;;11.55;5.80;;;-0.50;99.90;;;;;;5127118;27;20043;-77
2023/03/03 04:56:47;;;;;;;7.38;4.95;;;-0.50;99.90;;;;;;5131057;27;20036;-78
2023/03/03 04:59:14;;;;;;;10.23;5.70;;;-0.40;99.90;;;;;;5130737;27;20043;-78
2023/03/03 05:01:40;;;;;;;10.25;5.07;;;-0.40;99.90;;;;;;5112027;27;20063;-78
2023/03/03 05:04:06;;;;;;;8.90;5.80;;;-0.40;99.90;;;;;;5113026;27;20055;-78
2023/03/03 05:06:31;;;;;;;8.48;5.70;;;-0.40;99.90;;;;;;5093105;27;20058;-78
2023/03/03 05:08:57;;;;;;;8.00;5.65;;;0.10;99.90;;;;;;5112537;27;20047;-78
2023/03/03 05:11:23;;;;;;;10.65;5.90;;;0.20;99.90;;;;;;5128964;27;20043;-78
2023/03/03 05:13:48;;;;;;;9.07;5.50;;;1.00;99.90;;;;;;5131097;27;20043;-77
2023/03/03 05:16:14;;;;;;;6.75;4.85;;;0.80;99.90;;;;;;5129542;27;20043;-77
2023/03/03 05:18:40;;;;;;;9.45;5.38;;;-0.40;99.90;;;;;;5130339;27;20046;-77
2023/03/03 05:21:06;;;;;;;7.78;5.00;;;-0.40;99.90;;;;;;5131389;27;20043;-77
2023/03/03 05:23:32;;;;;;;8.27;5.60;;;-0.40;99.90;;;;;;5110624;27;20398;-76
2023/03/03 05:25:58;;;;;;;9.80;5.80;;;0.50;99.90;;;;;;5112456;27;20110;-76
2023/03/03 05:28:23;;;;;;;8.35;5.50;;;-0.50;99.90;;;;;;5110067;27;20046;-79
2023/03/03 05:30:49;;;;;;;7.75;4.68;;;-0.50;99.90;;;;;;5111775;27;20679;-77
2023/03/03 05:33:16;;;;;;;11.85;5.57;;;-0.50;99.90;;;;;;5077118;27;20035;-77
2023/03/03 05:35:42;;;;;;;8.93;4.72;;;-0.50;99.90;;;;;;5111223;27;20086;-77
2023/03/03 05:38:09;;;;;;;7.68;5.15;;;-0.60;99.90;;;;;;5111583;27;20039;-77
2023/03/03 05:40:35;;;;;;;6.53;4.63;;;-0.60;99.90;;;;;;5110544;27;20375;-77
2023/03/03 05:43:00;;;;;;;9.27;5.20;;;-0.60;99.90;;;;;;5078564;27;20425;-77
2023/03/03 05:45:26;;;;;;;6.82;4.43;;;-0.60;99.90;;;;;;5110082;27;20047;-77
2023/03/03 05:47:52;;;;;;;8.75;4.72;;;-0.70;99.90;;;;;;5111732;27;20469;-78
2023/03/03 05:50:20;;;;;;;9.93;6.05;;;-0.70;99.90;;;;;;5092621;27;20055;-77
2023/03/03 05:52:50;;;;;;;8.40;4.95;;;-0.70;99.90;;;;;;5111044;27;20063;-78
2023/03/03 05:55:16;;;;;;;7.97;4.82;;;-0.70;99.90;;;;;;5128422;27;20051;-78
2023/03/03 05:57:43;;;;;;;8.50;5.25;;;-0.80;99.90;;;;;;5110144;27;20130;-77
2023/03/03 06:00:09;;;;;;;9.02;5.70;;;0.30;99.90;;;;;;5095747;27;20070;-77
2023/03/03 06:02:34;;;;;;;10.65;5.85;;;-0.80;99.90;;;;;;5093038;27;20470;-77
2023/03/03 06:05:00;;;;;;;9.75;5.30;;;-0.80;99.90;;;;;;5094286;27;20039;-77
2023/03/03 06:07:26;;;;;;;9.43;5.40;;;-0.40;99.90;;;;;;5109356;27;20043;-77
2023/03/03 06:09:52;;;;;;;11.15;4.95;;;-0.90;99.90;;;;;;5094287;27;20047;-77
2023/03/03 06:12:18;;;;;;;8.98;4.85;;;-0.80;99.90;;;;;;5111363;27;20375;-77
2023/03/03 06:14:43;;;;;;;8.30;4.75;;;-0.90;99.90;;;;;;5092853;27;20117;-77
2023/03/03 06:17:09;;;;;;;7.88;5.03;;;-1.00;99.90;;;;;;5112271;27;20477;-77
2023/03/03 06:19:36;;;;;;;8.80;5.32;;;-1.00;99.90;;;;;;5092737;27;20106;-77
2023/03/03 06:22:02;;;;;;;8.05;5.30;;;-1.00;99.90;;;;;;5129835;27;20099;-77
2023/03/03 06:24:30;;;;;;;9.30;5.20;;;-1.10;99.90;;;;;;5109800;27;20088;-77
2023/03/03 06:27:00;;;;;;;6.18;4.28;;;-0.80;99.90;;;;;;5110397;27;20047;-76
2023/03/03 06:29:26;;;;;;;8.45;5.35;;;-1.10;99.90;;;;;;5110565;27;20051;-76
2023/03/03 06:31:52;;;;;;;9.30;4.90;;;-1.10;99.90;;;;;;5109566;27;20051;-77
2023/03/03 06:34:18;;;;;;;9.60;6.03;;;-1.10;99.90;;;;;;5111416;27;20043;-76
2023/03/03 06:36:44;;;;;;;7.60;5.15;;;-1.10;99.90;;;;;;5108440;27;20042;-76
2023/03/03 06:39:13;;;;;;;9.90;6.30;;;-0.60;99.90;;;;;;5077952;27;20410;-78
2023/03/03 06:41:38;;;;;;;11.85;6.00;;;0.70;99.90;;;;;;5092612;27;20047;-77
2023/03/03 06:44:04;;;;;;;10.20;5.97;;;-0.80;99.90;;;;;;5093568;27;20055;-77
2023/03/03 06:46:30;;;;;;;10.07;6.40;;;-0.80;99.90;;;;;;5110508;27;20146;-77
2023/03/03 06:48:55;;;;;;;9.65;5.88;;;-0.80;99.90;;;;;;5109549;27;20500;-77
2023/03/03 06:51:27;;;;;;;9.55;5.80;;;-0.80;99.90;;;;;;5093944;27;20562;-77
2023/03/03 06:53:56;;;;;;;10.57;6.47;;;-0.70;99.90;;;;;;5091771;27;20135;-77
2023/03/03 06:56:25;;;;;;;8.30;5.43;;;0.70;99.90;;;;;;5093596;27;20047;-77
2023/03/03 06:58:59;;;;;;;9.25;6.35;;;-0.70;99.90;;;;;;5108859;27;20047;-78
2023/03/03 07:01:29;;;;;;;13.55;6.20;;;-0.60;99.90;;;;;;5092773;27;20047;-77
2023/03/03 07:03:55;;;;;;;8.68;5.55;;;-0.60;99.90;;;;;;5096102;27;20069;-77
2023/03/03 07:06:25;;;;;;;8.50;5.45;;;0.20;99.90;;;;;;5077322;27;20031;-77
2023/03/03 07:08:52;;;;;;;8.98;5.85;;;-0.50;99.90;;;;;;5113731;27;20417;-77
2023/03/03 07:11:21;;;;;;;10.73;6.03;;;-0.50;99.90;;;;;;5094203;27;20039;-77
2023/03/03 07:13:53;;;;;;;9.25;5.97;;;-0.40;99.90;;;;;;5095232;27;20043;-77
2023/03/03 07:16:23;;;;;;;9.75;6.07;;;-0.30;99.90;;;;;;5092696;27;20054;-78
2023/03/03 07:18:54;;;;;;;12.82;5.97;;;-0.10;99.90;;;;;;5108315;27;20115;-77
2023/03/03 07:21:30;;;;;;;12.32;5.93;;;0.00;99.90;;;;;;5110217;27;20074;-77
2023/03/03 07:23:57;;;;;;;8.52;5.70;;;0.20;99.90;;;;;;5108234;27;20379;-78
2023/03/03 07:26:32;;;;;;;9.40;5.97;;;0.40;99.90;;;;;;5109687;27;20039;-78
2023/03/03 07:29:02;;;;;;;13.70;7.22;;;0.50;99.90;;;;;;5108705;27;20051;-77
2023/03/03 07:31:39;;;;;;;13.40;6.45;;;0.60;99.90;;;;;;5109018;27;20046;-77
2023/03/03 07:34:30;;;;;;;10.32;6.07;;;0.70;99.90;;;;;;5109801;27;20050;-77
2023/03/03 07:37:04;;;;;;;15.57;6.47;;;0.70;99.90;;;;;;5107877;27;20439;-77
2023/03/03 07:39:38;;;;;;;9.95;6.50;;;1.20;99.90;;;;;;5109435;27;20044;-77
2023/03/03 07:42:18;;;;;;;14.82;7.10;;;0.90;99.90;;;;;;5109017;27;20052;-77
2023/03/03 07:44:47;;;;;;;11.85;7.10;;;1.00;99.90;;;;;;5126045;27;20085;-78
2023/03/03 07:47:25;;;;;;;16.25;7.00;;;1.10;99.90;;;;;;5109825;27;20390;-77
2023/03/03 07:49:54;;;;;;;14.68;7.78;;;1.20;99.90;;;;;;5107604;27;20522;-78
2023/03/03 07:52:38;;;;;;;18.23;7.10;;;1.30;99.90;;;;;;5105329;28;20112;-78
2023/03/03 07:55:36;;;;;;;11.70;6.70;;;1.40;99.90;;;;;;5089135;28;20134;-77
2023/03/03 07:58:21;;;;;;;10.75;6.45;;;1.50;99.90;;;;;;5103901;28;20479;-78
2023/03/03 08:01:09;;;;;;;12.80;6.10;;;1.60;99.90;;;;;;5089020;28;20128;-79
2023/03/03 08:03:35;;;;;;;12.90;6.00;;;1.70;99.90;;;;;;5105628;28;20467;-77
2023/03/03 08:06:28;;;;;;;9.60;5.93;;;1.80;99.90;;;;;;5088021;28;20575;-79
2023/03/03 08:08:57;;;;;;;11.82;5.40;;;1.90;99.90;;;;;;5106004;28;20561;-78
2023/03/03 08:11:24;;;;;;;11.07;5.68;;;2.60;99.90;;;;;;5071041;28;20043;-78
2023/03/03 08:13:50;;;;;;;9.02;5.50;;;2.10;99.90;;;;;;5088683;28;20407;-77
2023/03/03 08:16:15;;;;;;;11.18;5.65;;;2.20;99.90;;;;;;5087938;28;20046;-77
2023/03/03 08:18:46;;;;;;;13.82;5.55;;;2.30;99.90;;;;;;5104170;28;20202;-77
2023/03/03 08:21:15;;;;;;;8.30;5.07;;;3.00;99.90;;;;;;5105811;28;20138;-77
2023/03/03 08:23:41;;;;;;;17.83;4.78;;;3.30;99.90;;;;;;5103190;28;20046;-77
2023/03/03 08:26:08;;;;;;;11.10;4.88;;;2.60;99.90;;;;;;5105493;28;20044;-79
2023/03/03 08:28:34;;;;;;;12.18;5.20;;;2.70;99.90;;;;;;5086943;28;20044;-79
2023/03/03 08:31:00;;;;;;;13.05;4.30;;;2.80;99.90;;;;;;5092210;28;20402;-78
2023/03/03 08:33:25;;;;;;;14.25;4.90;;;2.80;99.90;;;;;;5109022;28;20039;-78
2023/03/03 08:35:51;;;;;;;11.02;5.40;;;2.90;99.90;;;;;;5091551;28;20079;-78
2023/03/03 08:38:19;;;;;;;12.73;4.88;;;3.00;99.90;;;;;;5092670;28;20062;-78
2023/03/03 08:40:46;;;;;;;11.52;4.80;;;3.10;99.90;;;;;;5107417;28;20577;-79
2023/03/03 08:43:20;;;;;;;15.18;4.50;;;3.90;99.90;;;;;;5110094;28;20043;-79
2023/03/03 08:45:47;;;;;;;7.80;4.15;;;3.30;99.90;;;;;;5075393;28;20097;-78
2023/03/03 08:48:13;;;;;;;8.00;4.05;;;3.40;99.90;;;;;;5108806;28;20486;-79
2023/03/03 08:50:39;;;;;;;10.68;4.88;;;3.50;99.90;;;;;;5108787;28;20039;-79
2023/03/03 08:53:05;;;;;;;8.65;4.32;;;4.80;99.90;;;;;;5090573;28;20059;-79
2023/03/03 08:55:31;;;;;;;10.75;5.80;;;3.70;99.90;;;;;;5109703;28;20048;-79
2023/03/03 08:57:57;;;;;;;10.43;6.22;;;3.80;99.90;;;;;;5090336;28;20054;-77
2023/03/03 09:00:25;;;;;;;7.55;4.10;;;3.90;99.90;;;;;;5075571;28;20040;-81
2023/03/03 09:02:51;;;;;;;8.25;4.28;;;3.90;99.90;;;;;;5107772;28;20043;-77
2023/03/03 09:05:18;;;;;;;7.18;3.60;;;4.10;99.90;;;;;;5108784;28;20136;-77
2023/03/03 09:07:48;;;;;;;9.63;3.42;;;4.20;99.90;;;;;;5091947;28;20088;-77
2023/03/03 09:10:17;;;;;;;18.77;4.35;;;4.30;99.90;;;;;;5107521;28;20465;-77
2023/03/03 09:12:49;;;;;;;10.13;4.65;;;5.70;99.90;;;;;;5109463;28;20043;-77
2023/03/03 09:15:18;;;;;;;13.38;4.00;;;4.70;99.90;;;;;;5107333;28;20050;-77
2023/03/03 09:17:45;;;;;;;8.63;3.83;;;4.70;99.90;;;;;;5109425;27;20085;-77
2023/03/03 09:20:32;;;;;;;19.90;4.40;;;4.70;99.90;;;;;;5107668;28;20046;-77
2023/03/03 09:23:26;;;;;;;11.27;3.50;;;4.80;99.90;;;;;;5107523;28;20043;-77
2023/03/03 09:25:52;;;;;;;9.85;4.10;;;5.00;99.90;;;;;;5109286;28;20055;-77
2023/03/03 09:28:28;;;;;;;13.10;4.53;;;5.10;99.90;;;;;;5090455;28;20075;-77
2023/03/03 09:30:57;;;;;;;12.75;4.72;;;6.30;99.90;;;;;;5108190;28;20545;-77
2023/03/03 09:33:42;;;;;;;15.90;4.03;;;5.40;99.90;;;;;;5108165;28;20621;-77
2023/03/03 09:36:28;;;;;;;12.88;4.25;;;5.60;99.90;;;;;;5108009;28;20076;-77
2023/03/03 09:38:56;;;;;;;7.47;3.88;;;5.80;99.90;;;;;;5110044;28;20058;-77
2023/03/03 09:41:33;;;;;;;9.30;4.30;;;5.90;99.90;;;;;;5106844;28;20055;-77
2023/03/03 09:44:24;;;;;;;10.40;4.03;;;6.00;99.90;;;;;;5109535;28;20044;-77
2023/03/03 09:47:01;;;;;;;10.73;4.38;;;6.10;99.90;;;;;;5110541;28;20097;-77
2023/03/03 09:49:34;;;;;;;13.65;4.80;;;6.20;99.90;;;;;;5107512;28;20071;-77
2023/03/03 09:52:15;;;;;;;8.63;4.03;;;6.30;99.90;;;;;;5120208;27;20050;-77
2023/03/03 09:55:01;;;;;;;5.45;3.92;;;6.30;99.90;;;;;;5111084;27;20138;-77
2023/03/03 09:57:52;;;;;;;7.72;4.43;;;5.10;99.90;;;;;;5109820;27;20051;-77
2023/03/03 10:00:37;;;;;;;11.60;4.70;;;6.30;99.90;;;;;;5112029;27;20395;-78
2023/03/03 10:03:13;;;;;;;13.13;2.63;;;6.40;99.90;;;;;;5093142;27;20050;-79
2023/03/03 10:05:42;;;;;;;9.48;2.85;;;6.40;99.90;;;;;;5110409;27;20448;-79
2023/03/03 10:08:16;;;;;;;5.38;1.80;;;7.80;99.90;;;;;;5112222;27;20054;-76
2023/03/03 10:11:09;;;;;;;4.20;2.05;;;6.40;99.90;;;;;;5092202;27;20069;-76
2023/03/03 10:14:01;;;;;;;3.40;1.13;;;6.50;99.90;;;;;;5111317;27;20058;-76
2023/03/03 10:16:45;;;;;;;4.45;1.63;;;6.60;99.90;;;;;;5111722;27;20054;-76
2023/03/03 10:19:29;;;;;;;5.60;1.50;;;6.60;99.90;;;;;;5109769;27;20078;-78
2023/03/03 10:22:19;;;;;;;4.90;1.50;;;6.70;99.90;;;;;;5111989;27;20384;-77
2023/03/03 10:25:12;;;;;;;8.18;1.75;;;6.90;99.90;;;;;;5085803;27;20051;-77
2023/03/03 10:27:59;;;;;;;2.90;1.77;;;6.90;99.90;;;;;;5108817;27;20513;-77
2023/03/03 10:30:42;;;;;;;5.10;1.35;;;7.00;99.90;;;;;;5110685;27;20494;-77
2023/03/03 10:33:36;;;;;;;3.47;1.30;;;7.20;99.90;;;;;;5109960;27;20510;-78
2023/03/03 10:36:01;;;;;;;;;;;7.20;99.90;;;;;;5109675;27;20285;-78
2023/03/03 10:38:39;;;;;;;7.43;1.33;;;7.30;99.90;;;;;;5111481;27;20042;-77
2023/03/03 10:41:13;;;;;;;8.05;1.50;;;7.40;99.90;;;;;;5127865;27;20421;-78
2023/03/03 10:43:58;;;;;;;2.28;0.60;;;7.50;99.90;;;;;;5110455;27;20135;-78
2023/03/03 10:46:43;;;;;;;4.00;0.47;;;7.60;99.90;;;;;;5110806;27;20432;-78
2023/03/03 10:49:40;;;;;;;5.03;0.63;;;7.60;99.90;;;;;;5108121;27;20047;-78
2023/03/03 10:52:19;;;;;;;3.35;0.65;;;7.70;99.90;;;;;;5092211;27;20074;-78
2023/03/03 10:55:07;;;;;;;3.13;0.60;;;7.80;99.90;;;;;;5128712;27;20047;-78
2023/03/03 10:57:45;;;;;;;5.53;0.70;;;7.80;99.90;;;;;;5108525;27;20046;-78
2023/03/03 11:00:39;;;;;;;4.93;0.60;;;7.90;99.90;;;;;;5129179;27;20039;-78
2023/03/03 11:03:23;;;;;;;7.57;0.38;;;7.90;99.90;;;;;;5125878;27;20486;-78
2023/03/03 11:06:01;;;;;;;8.63;1.20;;;8.00;99.90;;;;;;5127234;27;20035;-78
2023/03/03 11:08:40;;;;;;;2.25;0.40;;;8.20;99.90;;;;;;5110759;27;20120;-78
2023/03/03 11:11:21;;;;;;;3.60;0.40;;;8.30;99.90;;;;;;5108358;27;20103;-78
2023/03/03 11:14:02;;;;;;;3.42;0.40;;;8.40;99.90;;;;;;5109697;27;20143;-79
2023/03/03 11:16:46;;;;;;;4.32;0.57;;;9.20;99.90;;;;;;5110325;27;20053;-80
2023/03/03 11:19:29;;;;;;;6.43;0.40;;;8.20;99.90;;;;;;5091497;27;20438;-78
2023/03/03 11:22:19;;;;;;;1.25;0.20;;;8.20;99.90;;;;;;5109791;27;20050;-78
2023/03/03 11:25:13;;;;;;;3.97;0.30;;;8.20;99.90;;;;;;5109417;27;20463;-79
2023/03/03 11:28:03;;;;;;;5.38;0.55;;;8.20;99.90;;;;;;5107303;27;20078;-77
2023/03/03 11:30:38;;;;;;;2.65;0.60;;;8.20;99.90;;;;;;5092530;27;20126;-80
2023/03/03 11:33:40;;;;;;;2.35;0.38;;;8.30;99.90;;;;;;5108812;27;20090;-77
2023/03/03 11:36:09;;;;;;;4.05;0.40;;;8.30;99.90;;;;;;5107447;27;20047;-77
2023/03/03 11:39:10;;;;;;;8.60;0.75;;;8.30;99.90;;;;;;5110313;27;20086;-81
2023/03/03 11:41:47;;;;;;;1.85;0.30;;;8.20;99.90;;;;;;5087426;27;20074;-77
2023/03/03 11:44:34;;;;;;;1.77;0.30;;;8.20;99.90;;;;;;5091303;27;20104;-78
2023/03/03 11:47:17;;;;;;;3.63;0.47;;;8.30;99.90;;;;;;5110302;27;20043;-77
2023/03/03 11:49:49;;;;;;;7.13;0.68;;;8.70;99.90;;;;;;5107724;27;20047;-78
2023/03/03 11:52:43;;;;;;;2.47;0.38;;;9.10;99.90;;;;;;5088494;28;20055;-78
2023/03/03 11:55:14;;;;;;;6.35;0.52;;;9.30;99.90;;;;;;5089092;28;20047;-79
2023/03/03 11:57:42;;;;;;;4.25;0.80;;;9.30;99.90;;;;;;5103791;28;20051;-77
2023/03/03 12:00:26;;;;;;;8.77;0.82;;;9.30;99.90;;;;;;5107724;28;20114;-77
2023/03/03 12:03:25;;;;;;;3.63;0.70;;;9.20;99.90;;;;;;5106020;28;20048;-76
2023/03/03 12:06:28;;;;;;;4.38;0.73;;;9.20;99.90;;;;;;5105530;28;20051;-77
2023/03/03 12:09:09;;;;;;;13.00;1.00;;;9.30;99.90;;;;;;5105105;28;20052;-77
2023/03/03 12:11:46;;;;;;;10.00;1.00;;;9.30;99.90;;;;;;5106301;28;20501;-77
2023/03/03 12:14:20;;;;;;;7.43;1.05;;;9.30;99.90;;;;;;5070848;28;20048;-77
2023/03/03 12:16:52;;;;;;;7.85;0.55;;;9.30;99.90;;;;;;5106621;28;20071;-77
2023/03/03 12:19:33;;;;;;;11.50;1.23;;;9.30;99.90;;;;;;5086759;28;20052;-76
2023/03/03 12:22:06;;;;;;;7.63;0.85;;;9.20;99.90;;;;;;5105954;28;20073;-76
2023/03/03 12:24:44;;;;;;;6.75;1.80;;;9.20;99.90;;;;;;5105520;28;20055;-77
2023/03/03 12:27:33;;;;;;;6.50;0.85;;;9.20;99.90;;;;;;5087063;28;20479;-77
2023/03/03 12:30:30;;;;;;;5.45;0.60;;;9.20;99.90;;;;;;5088980;28;20104;-77
2023/03/03 12:33:22;;;;;;;5.40;0.82;;;9.20;99.90;;;;;;5090130;28;20062;-77
2023/03/03 12:36:15;;;;;;;6.50;0.80;;;9.30;99.90;;;;;;5104042;28;20177;-77
2023/03/03 12:39:15;;;;;;;3.92;0.80;;;9.30;99.90;;;;;;5105755;28;20514;-78
2023/03/03 12:41:50;;;;;;;6.40;1.30;;;9.30;99.90;;;;;;5088148;28;20479;-77
2023/03/03 12:44:34;;;;;;;10.13;0.90;;;9.40;99.90;;;;;;5087051;28;20058;-76
2023/03/03 12:47:12;;;;;;;8.52;0.82;;;9.20;99.90;;;;;;5105607;28;20498;-76
2023/03/03 12:50:06;;;;;;;9.93;2.05;;;9.10;99.90;;;;;;5104130;28;20398;-77
2023/03/03 12:52:45;;;;;;;;;;;9.30;99.90;;;;;;5104655;28;20055;-76
2023/03/03 12:55:14;;;;;;;14.45;1.58;;;9.50;99.90;;;;;;5107316;28;19919;-76
2023/03/03 12:57:59;;;;;;;9.85;2.10;;;9.60;99.90;;;;;;5104889;28;20123;-76
2023/03/03 13:00:39;;;;;;;11.50;1.02;;;9.70;99.90;;;;;;5105341;28;20043;-76
2023/03/03 13:03:38;;;;;;;8.05;1.13;;;11.00;99.90;;;;;;5104523;28;20044;-77
2023/03/03 13:06:34;;;;;;;8.90;1.23;;;9.60;99.90;;;;;;5103295;28;20051;-77
2023/03/03 13:09:25;;;;;;;15.70;1.58;;;9.60;99.90;;;;;;5105858;28;20123;-76
2023/03/03 13:12:02;;;;;;;13.68;2.03;;;9.60;99.90;;;;;;5105186;28;20122;-76
2023/03/03 13:14:49;;;;;;;12.95;1.75;;;9.60;99.90;;;;;;5103394;28;20050;-76
2023/03/03 13:17:21;;;;;;;16.65;1.85;;;9.50;99.90;;;;;;5109006;28;20122;-77